Time;durP1;ratioP1;P1;durP2;ratioP2;P2;SDS_P1;SDS_P2;PMS_P1;PMS_P2;Temp;Humidity;BMP_temperature;BMP_pressure;BME280_temperature;BME280_humidity;BME280_pressure;Samples;Min_cycle;Max_cycle;Signal;HPM_P1;HPM_P2
2021/03/24 00:02:04;;;;;;;24.88;13.77;;;179.60;1920.00;;;;;;5054353;28;20055;-58
2021/03/24 00:04:30;;;;;;;22.60;12.93;;;179.50;1945.60;;;;;;5054689;28;20025;-56
2021/03/24 00:06:55;;;;;;;22.13;13.15;;;179.60;1945.60;;;;;;5038189;28;20624;-58
2021/03/24 00:09:21;;;;;;;24.50;14.38;;;179.60;1945.60;;;;;;5054526;28;20032;-59
2021/03/24 00:11:47;;;;;;;22.35;13.45;;;179.60;1920.00;;;;;;5040179;28;20116;-59
2021/03/24 00:14:13;;;;;;;21.75;13.18;;;179.70;1920.00;;;;;;5048002;28;20036;-58
2021/03/24 00:16:38;;;;;;;24.45;12.55;;;179.70;1920.00;;;;;;5049993;28;20548;-59
2021/03/24 00:19:05;;;;;;;20.77;11.90;;;179.70;1920.00;;;;;;5054118;28;20029;-59
2021/03/24 00:21:30;;;;;;;20.75;12.25;;;179.70;1920.00;;;;;;5053808;28;20116;-58
2021/03/24 00:23:56;;;;;;;23.63;13.65;;;179.70;1920.00;;;;;;5050247;28;20076;-58
2021/03/24 00:26:22;;;;;;;22.98;13.40;;;179.70;1920.00;;;;;;5032044;28;20041;-59
2021/03/24 00:28:47;;;;;;;21.67;12.80;;;179.70;1920.00;;;;;;5032560;28;20053;-57
2021/03/24 00:31:13;;;;;;;22.00;12.45;;;179.60;1920.00;;;;;;5032428;28;20130;-59
2021/03/24 00:33:39;;;;;;;20.05;12.40;;;179.60;1945.60;;;;;;5031799;28;20037;-58
2021/03/24 00:36:05;;;;;;;20.52;10.68;;;179.60;1945.60;;;;;;5038518;28;20021;-59
2021/03/24 00:38:31;;;;;;;22.35;13.23;;;179.60;1945.60;;;;;;5025690;28;20499;-58
2021/03/24 00:40:58;;;;;;;22.02;12.80;;;179.60;1945.60;;;;;;5051653;28;20037;-58
2021/03/24 00:43:25;;;;;;;22.90;12.50;;;179.60;1945.60;;;;;;5043781;28;20017;-57
2021/03/24 00:45:51;;;;;;;21.13;12.77;;;179.60;1945.60;;;;;;5033569;28;20025;-58
2021/03/24 00:48:26;;;;;;;22.52;12.38;;;179.60;1945.60;;;;;;5033651;28;20112;-58
2021/03/24 00:50:51;;;;;;;21.90;12.25;;;179.50;1945.60;;;;;;5033612;28;20025;-60
2021/03/24 00:53:17;;;;;;;21.77;13.07;;;179.50;1945.60;;;;;;5033421;28;20026;-58
2021/03/24 00:55:45;;;;;;;20.33;12.90;;;179.60;1945.60;;;;;;5042800;28;20029;-58
2021/03/24 00:58:10;;;;;;;22.50;13.63;;;179.60;1945.60;;;;;;5033669;28;20108;-59
2021/03/24 01:00:38;;;;;;;20.92;13.55;;;179.60;1945.60;;;;;;5036754;28;20562;-58
2021/03/24 01:03:05;;;;;;;19.02;10.45;;;179.60;1945.60;;;;;;5033500;28;20034;-58
2021/03/24 01:05:31;;;;;;;20.13;12.45;;;179.60;1971.20;;;;;;5035429;28;20482;-58
2021/03/24 01:08:01;;;;;;;21.73;13.15;;;179.60;1971.20;;;;;;5033502;28;20061;-58
2021/03/24 01:10:29;;;;;;;22.35;12.95;;;179.50;1971.20;;;;;;5033865;28;20422;-58
2021/03/24 01:12:55;;;;;;;22.45;13.50;;;179.50;1971.20;;;;;;5033767;28;20056;-60
2021/03/24 01:15:22;;;;;;;20.48;12.25;;;179.60;1971.20;;;;;;5045391;28;20067;-58
2021/03/24 01:17:48;;;;;;;20.65;12.65;;;179.50;1971.20;;;;;;5053801;28;20049;-58
2021/03/24 01:20:16;;;;;;;20.70;12.88;;;179.60;1971.20;;;;;;5052870;28;20541;-59
2021/03/24 01:22:41;;;;;;;21.85;12.85;;;179.60;1971.20;;;;;;5047311;28;20053;-59
2021/03/24 01:25:08;;;;;;;22.73;12.80;;;179.50;1971.20;;;;;;5033762;28;20052;-58
2021/03/24 01:27:34;;;;;;;22.00;13.35;;;179.60;1971.20;;;;;;5033590;28;20029;-58
2021/03/24 01:30:00;;;;;;;22.50;12.30;;;179.50;1971.20;;;;;;5033428;28;20045;-59
2021/03/24 01:32:25;;;;;;;23.45;14.18;;;179.50;1971.20;;;;;;5029699;28;20087;-56
2021/03/24 01:34:51;;;;;;;23.50;13.63;;;179.60;1971.20;;;;;;5033074;28;20033;-59
2021/03/24 01:37:17;;;;;;;22.70;13.57;;;179.60;1971.20;;;;;;5032703;28;20113;-58
2021/03/24 01:39:42;;;;;;;22.92;13.63;;;179.60;1971.20;;;;;;5032562;28;20036;-58
2021/03/24 01:42:09;;;;;;;18.98;12.02;;;179.60;1971.20;;;;;;5032818;28;20068;-58
2021/03/24 01:45:00;;;;;;;26.85;13.70;;;179.60;1971.20;;;;;;5033017;28;20026;-58
2021/03/24 01:47:28;;;;;;;22.98;13.63;;;179.60;1971.20;;;;;;5033304;28;20076;-57
2021/03/24 01:49:54;;;;;;;23.27;13.02;;;179.60;1971.20;;;;;;5050542;28;20532;-57
2021/03/24 01:52:21;;;;;;;21.73;12.82;;;179.60;1971.20;;;;;;5035843;28;20029;-58
2021/03/24 01:54:47;;;;;;;22.90;13.93;;;179.50;1971.20;;;;;;5032699;28;20028;-58
2021/03/24 01:57:20;;;;;;;25.50;14.02;;;179.60;1971.20;;;;;;5033138;28;20022;-58
2021/03/24 01:59:50;;;;;;;27.63;14.75;;;179.60;1971.20;;;;;;5032773;28;20593;-59
2021/03/24 02:02:27;;;;;;;21.15;13.23;;;179.60;1971.20;;;;;;5032446;28;20621;-58
2021/03/24 02:04:53;;;;;;;22.13;14.13;;;179.60;1996.80;;;;;;5032702;28;20028;-58
2021/03/24 02:07:40;;;;;;;21.10;13.32;;;179.60;1971.20;;;;;;5034218;28;20029;-58
2021/03/24 02:10:15;;;;;;;23.48;14.18;;;179.50;1996.80;;;;;;5035631;28;20021;-57
2021/03/24 02:12:47;;;;;;;;;;;179.50;1996.80;;;;;;5037158;28;20214;-59
2021/03/24 02:15:20;;;;;;;23.00;13.35;;;179.50;1996.80;;;;;;5056375;28;19905;-58
2021/03/24 02:17:47;;;;;;;26.75;14.27;;;179.50;1996.80;;;;;;5055433;28;20338;-59
2021/03/24 02:20:15;;;;;;;20.88;13.10;;;179.60;1996.80;;;;;;5056262;28;20103;-59
2021/03/24 02:22:47;;;;;;;20.15;12.85;;;179.60;1971.20;;;;;;5037092;28;20030;-59
2021/03/24 02:25:47;;;;;;;29.88;15.10;;;179.60;1996.80;;;;;;5036571;28;20049;-58
2021/03/24 02:28:14;;;;;;;21.58;13.38;;;179.60;1996.80;;;;;;5036396;28;20025;-58
2021/03/24 02:30:43;;;;;;;19.10;12.23;;;179.50;1996.80;;;;;;5035962;28;20045;-58
2021/03/24 02:33:18;;;;;;;19.08;12.40;;;179.50;1996.80;;;;;;5035886;28;20049;-58
2021/03/24 02:35:48;;;;;;;20.27;13.13;;;179.50;1996.80;;;;;;5036053;28;20105;-58
2021/03/24 02:38:15;;;;;;;22.25;14.05;;;179.50;1996.80;;;;;;5036207;28;20034;-58
2021/03/24 02:40:43;;;;;;;25.13;14.55;;;179.50;1996.80;;;;;;5035946;28;20048;-58
2021/03/24 02:43:11;;;;;;;22.40;13.80;;;179.50;2022.40;;;;;;5036335;28;20025;-58
2021/03/24 02:45:40;;;;;;;25.75;14.80;;;179.50;2022.40;;;;;;5036013;28;20029;-58
2021/03/24 02:48:08;;;;;;;20.30;12.77;;;179.50;2022.40;;;;;;5036182;28;20029;-58
2021/03/24 02:50:37;;;;;;;24.38;14.15;;;179.50;2022.40;;;;;;5032529;28;20371;-58
2021/03/24 02:53:04;;;;;;;21.13;11.80;;;179.50;1996.80;;;;;;5035391;28;20029;-57
2021/03/24 02:55:32;;;;;;;24.38;15.65;;;179.50;2022.40;;;;;;5035762;28;20029;-58
2021/03/24 02:57:58;;;;;;;24.73;13.80;;;179.40;2022.40;;;;;;5035593;28;20061;-58
2021/03/24 03:00:25;;;;;;;24.77;13.80;;;179.50;2022.40;;;;;;5035606;28;20049;-58
2021/03/24 03:02:55;;;;;;;23.15;13.65;;;179.50;2022.40;;;;;;5035328;28;20113;-58
2021/03/24 03:05:31;;;;;;;22.10;13.50;;;179.50;2022.40;;;;;;5035747;28;20159;-59
2021/03/24 03:07:56;;;;;;;22.75;12.88;;;179.50;2022.40;;;;;;5035436;28;20041;-58
2021/03/24 03:10:46;;;;;;;21.27;11.57;;;179.50;2022.40;;;;;;5035114;28;20390;-59
2021/03/24 03:13:18;;;;;;;25.23;13.57;;;179.50;2022.40;;;;;;5035527;28;20025;-58
2021/03/24 03:16:06;;;;;;;21.40;12.13;;;179.50;2022.40;;;;;;5035417;28;20025;-57
2021/03/24 03:18:42;;;;;;;23.05;14.07;;;179.50;2022.40;;;;;;5035696;28;20082;-58
2021/03/24 03:21:20;;;;;;;20.95;12.98;;;179.50;2022.40;;;;;;5035213;28;20040;-58
2021/03/24 03:23:49;;;;;;;22.55;13.50;;;179.50;2022.40;;;;;;5034946;28;20083;-58
2021/03/24 03:26:18;;;;;;;21.40;12.60;;;179.40;2022.40;;;;;;5035564;28;20022;-58
2021/03/24 03:28:49;;;;;;;20.52;12.38;;;179.40;2022.40;;;;;;5035125;28;20037;-59
2021/03/24 03:31:18;;;;;;;24.65;14.30;;;179.50;2022.40;;;;;;5034945;28;20553;-59
2021/03/24 03:33:48;;;;;;;22.73;12.23;;;179.50;2022.40;;;;;;5034971;28;20049;-58
2021/03/24 03:36:14;;;;;;;22.92;13.18;;;179.50;2022.40;;;;;;5035345;28;20033;-57
2021/03/24 03:38:41;;;;;;;23.70;13.07;;;179.50;2022.40;;;;;;5034969;28;20077;-58
2021/03/24 03:41:11;;;;;;;26.13;14.00;;;179.50;2022.40;;;;;;5035008;28;20030;-58
2021/03/24 03:43:41;;;;;;;21.27;13.13;;;179.50;2022.40;;;;;;5035101;28;20022;-57
2021/03/24 03:46:11;;;;;;;25.75;13.82;;;179.50;2022.40;;;;;;5034814;28;20029;-58
2021/03/24 03:48:37;;;;;;;21.77;13.63;;;179.50;2022.40;;;;;;5034760;28;20044;-57
2021/03/24 03:51:06;;;;;;;20.05;13.43;;;179.40;2022.40;;;;;;5034444;28;20478;-59
2021/03/24 03:53:56;;;;;;;24.65;13.93;;;179.40;2022.40;;;;;;5034321;28;20041;-57
2021/03/24 03:56:37;;;;;;;22.30;13.88;;;179.50;2022.40;;;;;;5014506;28;20028;-56
2021/03/24 03:59:10;;;;;;;22.90;13.25;;;179.50;2022.40;;;;;;5039931;28;20116;-59
2021/03/24 04:01:47;;;;;;;22.75;13.38;;;179.40;2022.40;;;;;;5055014;28;20033;-58
2021/03/24 04:04:38;;;;;;;21.02;12.85;;;179.40;2022.40;;;;;;5041466;28;20471;-58
2021/03/24 04:07:20;;;;;;;21.38;12.82;;;179.50;2022.40;;;;;;5038250;28;20029;-58
2021/03/24 04:09:47;;;;;;;19.80;12.70;;;179.50;2022.40;;;;;;5041983;28;20029;-58
2021/03/24 04:12:16;;;;;;;20.95;12.20;;;179.50;2022.40;;;;;;5034120;28;20025;-58
2021/03/24 04:14:43;;;;;;;19.02;11.88;;;179.40;2022.40;;;;;;5052034;28;20104;-58
2021/03/24 04:17:13;;;;;;;22.83;12.05;;;179.40;2048.00;;;;;;5054003;28;20029;-58
2021/03/24 04:19:43;;;;;;;21.20;12.43;;;179.50;2022.40;;;;;;5048375;28;20057;-58
2021/03/24 04:22:13;;;;;;;19.90;12.45;;;179.50;2022.40;;;;;;5033888;28;20048;-59
2021/03/24 04:24:43;;;;;;;21.77;13.23;;;179.50;2022.40;;;;;;5034081;28;20030;-58
2021/03/24 04:27:12;;;;;;;21.08;12.43;;;179.50;2022.40;;;;;;5034653;28;20479;-57
2021/03/24 04:29:47;;;;;;;23.60;13.30;;;179.40;2048.00;;;;;;5034580;28;20028;-58
2021/03/24 04:32:13;;;;;;;;;;;179.40;2048.00;;;;;;5035000;28;20060;-59
2021/03/24 04:34:40;;;;;;;21.23;12.35;;;179.50;2048.00;;;;;;5034384;28;19912;-58
2021/03/24 04:37:25;;;;;;;19.30;11.73;;;179.40;2048.00;;;;;;5033926;28;20546;-58
2021/03/24 04:39:57;;;;;;;18.98;11.98;;;179.40;2048.00;;;;;;5035783;28;20041;-58
2021/03/24 04:42:31;;;;;;;21.77;11.75;;;179.40;2048.00;;;;;;5054600;28;20040;-60
2021/03/24 04:45:01;;;;;;;19.50;12.50;;;179.40;2048.00;;;;;;5054454;28;20082;-58
2021/03/24 04:47:33;;;;;;;23.92;14.32;;;179.40;2048.00;;;;;;5054446;28;20041;-59
2021/03/24 04:50:01;;;;;;;27.58;15.15;;;179.50;2048.00;;;;;;5054264;28;20378;-59
2021/03/24 04:52:30;;;;;;;23.48;13.55;;;179.50;2048.00;;;;;;5054043;28;20044;-58
2021/03/24 04:55:02;;;;;;;21.33;13.18;;;179.50;2048.00;;;;;;5054025;28;20040;-58
2021/03/24 04:57:29;;;;;;;35.85;16.65;;;179.50;2048.00;;;;;;5054354;28;20104;-56
2021/03/24 05:00:01;;;;;;;42.53;18.58;;;179.60;2022.40;;;;;;5053847;28;20032;-59
2021/03/24 05:02:33;;;;;;;34.28;15.90;;;179.50;2048.00;;;;;;5054126;28;20036;-58
2021/03/24 05:05:17;;;;;;;33.40;16.02;;;179.60;2022.40;;;;;;5053957;28;20048;-59
2021/03/24 05:08:03;;;;;;;62.40;30.90;;;179.50;2048.00;;;;;;5053867;28;20025;-59
2021/03/24 05:10:31;;;;;;;25.30;15.02;;;179.50;2048.00;;;;;;5053813;28;20028;-56
2021/03/24 05:13:23;;;;;;;32.70;19.20;;;179.60;2022.40;;;;;;5054057;28;20025;-58
2021/03/24 05:16:07;;;;;;;23.08;13.50;;;179.60;2048.00;;;;;;5053672;28;20455;-59
2021/03/24 05:18:34;;;;;;;23.70;13.90;;;179.60;2022.40;;;;;;5053646;28;20111;-58
2021/03/24 05:21:10;;;;;;;33.85;18.85;;;179.60;2022.40;;;;;;5053514;28;20040;-58
2021/03/24 05:23:36;;;;;;;24.17;14.50;;;179.60;2022.40;;;;;;5053718;28;20048;-59
2021/03/24 05:26:20;;;;;;;29.40;17.33;;;179.60;2048.00;;;;;;5053586;28;20495;-58
2021/03/24 05:28:48;;;;;;;24.63;14.85;;;179.60;2022.40;;;;;;5053813;28;20029;-57
2021/03/24 05:31:18;;;;;;;23.88;13.52;;;179.60;2022.40;;;;;;5053378;28;20486;-58
2021/03/24 05:33:48;;;;;;;30.63;16.33;;;179.60;2022.40;;;;;;5030508;28;20139;-59
2021/03/24 05:36:23;;;;;;;31.20;16.80;;;179.70;2022.40;;;;;;5044493;28;20029;-57
2021/03/24 05:38:51;;;;;;;25.15;15.07;;;179.70;2048.00;;;;;;5025057;28;20025;-57
2021/03/24 05:41:45;;;;;;;25.90;14.50;;;179.70;2022.40;;;;;;5051959;28;20041;-58
2021/03/24 05:44:32;;;;;;;24.05;14.95;;;179.70;2022.40;;;;;;5053576;28;20104;-58
2021/03/24 05:47:12;;;;;;;25.40;14.48;;;179.70;2048.00;;;;;;5042197;28;20515;-58
2021/03/24 05:50:00;;;;;;;24.33;14.77;;;179.70;2048.00;;;;;;5055494;28;20021;-58
2021/03/24 05:52:50;;;;;;;25.17;14.07;;;179.70;2048.00;;;;;;5055971;28;20025;-57
2021/03/24 05:55:32;;;;;;;29.08;16.05;;;179.80;2048.00;;;;;;5055593;28;20032;-58
2021/03/24 05:58:29;;;;;;;25.02;15.27;;;179.70;2073.60;;;;;;5069304;28;20035;-58
2021/03/24 06:01:29;;;;;;;26.95;16.38;;;179.70;2099.20;;;;;;5048170;28;20033;-58
2021/03/24 06:04:18;;;;;;;24.58;16.10;;;179.80;2124.80;;;;;;5034331;28;20513;-55
2021/03/24 06:07:17;;;;;;;27.08;17.75;;;179.70;2124.80;;;;;;5034203;28;20072;-55
2021/03/24 06:10:13;;;;;;;48.70;28.70;;;179.70;2150.40;;;;;;5014784;28;20037;-57
2021/03/24 06:12:53;;;;;;;33.55;21.02;;;179.90;2124.80;;;;;;5029169;28;20454;-55
2021/03/24 06:16:00;;;;;;;42.15;23.55;;;179.90;2124.80;;;;;;5033482;28;20036;-57
2021/03/24 06:19:00;;;;;;;41.10;23.35;;;180.00;2124.80;;;;;;4995061;28;20029;-58
2021/03/24 06:22:05;;;;;;;34.40;20.80;;;180.00;2073.60;;;;;;4967452;28;20044;-58
2021/03/24 06:24:52;;;;;;;29.17;17.80;;;180.10;2073.60;;;;;;4936890;29;20118;-58
2021/03/24 06:28:00;;;;;;;28.92;17.40;;;180.10;2073.60;;;;;;4936629;29;20031;-58
2021/03/24 06:31:03;;;;;;;33.72;20.48;;;204.80;2073.60;;;;;;4936067;29;20087;-58
2021/03/24 06:33:47;;;;;;;32.70;18.13;;;204.90;2048.00;;;;;;4879746;29;20135;-58
2021/03/24 06:37:03;;;;;;;31.92;19.10;;;204.90;2022.40;;;;;;4872439;29;20479;-58
2021/03/24 06:40:06;;;;;;;28.50;17.80;;;204.90;2022.40;;;;;;4858802;29;20054;-58
2021/03/24 06:42:59;;;;;;;28.85;17.35;;;204.90;1996.80;;;;;;4843105;29;20046;-58
2021/03/24 06:46:08;;;;;;;31.38;19.13;;;205.00;1996.80;;;;;;4841427;29;20102;-58
2021/03/24 06:48:46;;;;;;;28.60;17.00;;;205.10;1971.20;;;;;;4841335;29;20206;-58
2021/03/24 06:51:33;;;;;;;24.73;15.60;;;205.10;1971.20;;;;;;4841849;29;20049;-58
2021/03/24 06:54:20;;;;;;;26.38;15.85;;;205.20;1971.20;;;;;;4878552;29;20063;-58
2021/03/24 06:57:01;;;;;;;27.77;16.65;;;205.30;1945.60;;;;;;4880916;29;20109;-57
2021/03/24 06:59:45;;;;;;;24.45;15.55;;;205.20;1945.60;;;;;;4907801;29;20124;-56
2021/03/24 07:02:32;;;;;;;27.50;16.67;;;205.30;1920.00;;;;;;4958434;28;20050;-57
2021/03/24 07:05:26;;;;;;;36.53;20.80;;;205.40;1920.00;;;;;;4973405;28;20496;-59
2021/03/24 07:08:23;;;;;;;41.92;21.17;;;205.50;1894.40;;;;;;4990936;28;20478;-57
2021/03/24 07:11:28;;;;;;;66.05;26.65;;;205.60;1894.40;;;;;;5043311;28;20136;-55
2021/03/24 07:14:03;;;;;;;56.30;26.83;;;205.60;1894.40;;;;;;5047915;28;20047;-58
2021/03/24 07:16:48;;;;;;;29.00;16.55;;;205.70;1868.80;;;;;;5037954;28;20379;-58
2021/03/24 07:19:50;;;;;;;40.25;21.63;;;230.40;1843.20;;;;;;5035320;28;20057;-57
2021/03/24 07:22:28;;;;;;;36.25;18.67;;;230.50;1843.20;;;;;;5033056;28;20526;-56
2021/03/24 07:25:11;;;;;;;44.38;23.52;;;230.60;1817.60;;;;;;5033123;28;20121;-58
2021/03/24 07:27:42;;;;;;;35.25;18.83;;;230.80;1766.40;;;;;;5032970;28;20073;-58
2021/03/24 07:30:33;;;;;;;34.25;18.60;;;231.00;1766.40;;;;;;5032928;28;20038;-60
2021/03/24 07:33:21;;;;;;;49.85;24.48;;;231.10;1740.80;;;;;;5021346;28;20046;-59
2021/03/24 07:36:04;;;;;;;25.77;16.05;;;231.10;1740.80;;;;;;5012892;28;20508;-60
2021/03/24 07:38:53;;;;;;;26.67;16.60;;;231.10;1715.20;;;;;;5006849;28;20030;-57
2021/03/24 07:41:31;;;;;;;22.80;15.18;;;231.20;1715.20;;;;;;5028329;28;20042;-58
2021/03/24 07:44:24;;;;;;;21.48;14.65;;;256.10;1689.60;;;;;;5023505;28;20033;-59
2021/03/24 07:47:08;;;;;;;22.75;14.48;;;256.00;1664.00;;;;;;5032003;28;20063;-58
2021/03/24 07:49:58;;;;;;;23.75;14.70;;;256.20;1664.00;;;;;;5032377;28;20100;-58
2021/03/24 07:52:58;;;;;;;20.45;13.30;;;256.20;1638.40;;;;;;5031869;28;20124;-58
2021/03/24 07:55:38;;;;;;;26.42;17.48;;;256.20;1638.40;;;;;;5031837;28;20029;-57
2021/03/24 07:58:40;;;;;;;20.55;14.25;;;256.20;1638.40;;;;;;5032232;28;20029;-59
2021/03/24 08:01:45;;;;;;;24.98;16.23;;;256.20;1664.00;;;;;;5033992;28;20025;-59
2021/03/24 08:04:17;;;;;;;22.33;14.80;;;256.10;1664.00;;;;;;5033751;28;20037;-57
2021/03/24 08:07:00;;;;;;;24.63;15.50;;;256.10;1638.40;;;;;;5033847;28;20027;-56
2021/03/24 08:09:29;;;;;;;22.15;14.50;;;256.10;1664.00;;;;;;5033347;28;20479;-57
2021/03/24 08:12:09;;;;;;;27.00;15.73;;;256.10;1664.00;;;;;;5014152;28;20073;-57
2021/03/24 08:14:45;;;;;;;53.33;27.25;;;256.10;1638.40;;;;;;5013905;28;20032;-58
2021/03/24 08:17:43;;;;;;;43.63;28.45;;;256.00;1664.00;;;;;;5013872;28;20026;-57
2021/03/24 08:20:23;;;;;;;30.08;18.23;;;256.30;1638.40;;;;;;5014217;28;20041;-57
2021/03/24 08:23:13;;;;;;;30.35;18.90;;;256.30;1664.00;;;;;;5013813;28;20034;-58
2021/03/24 08:25:53;;;;;;;27.17;18.58;;;256.40;1638.40;;;;;;5014199;28;20499;-57
2021/03/24 08:28:45;;;;;;;25.65;16.60;;;256.40;1612.80;;;;;;5014339;28;20033;-57
2021/03/24 08:31:31;;;;;;;30.25;19.27;;;256.40;1638.40;;;;;;5013128;28;20107;-58
2021/03/24 08:34:19;;;;;;;25.10;16.58;;;256.50;1638.40;;;;;;5014247;28;20382;-57
2021/03/24 08:36:44;;;;;;;23.98;15.35;;;256.50;1612.80;;;;;;5013657;28;20025;-57
2021/03/24 08:39:51;;;;;;;23.45;14.85;;;256.60;1612.80;;;;;;5019865;28;20025;-57
2021/03/24 08:42:45;;;;;;;30.85;19.30;;;256.50;1638.40;;;;;;5033686;28;20380;-57
2021/03/24 08:45:23;;;;;;;31.30;18.67;;;256.40;1664.00;;;;;;5033049;28;20487;-57
2021/03/24 08:47:54;;;;;;;29.00;18.52;;;256.40;1638.40;;;;;;5033142;28;20247;-58
2021/03/24 08:50:27;;;;;;;27.15;16.38;;;256.30;1664.00;;;;;;5033449;28;20108;-57
2021/03/24 08:53:08;;;;;;;23.02;14.75;;;256.30;1664.00;;;;;;5033384;28;20038;-57
2021/03/24 08:56:05;;;;;;;21.48;14.55;;;256.40;1638.40;;;;;;5032143;28;20032;-58
2021/03/24 08:58:33;;;;;;;24.15;14.63;;;256.30;1664.00;;;;;;5033454;28;20100;-59
2021/03/24 09:01:26;;;;;;;24.08;16.00;;;256.60;1664.00;;;;;;5032500;28;20435;-59
2021/03/24 09:04:11;;;;;;;33.93;21.00;;;256.70;1638.40;;;;;;5028768;28;20546;-58
2021/03/24 09:06:58;;;;;;;26.02;17.15;;;256.80;1612.80;;;;;;5032544;28;20263;-58
2021/03/24 09:09:43;;;;;;;27.50;19.08;;;281.70;1587.20;;;;;;5033023;28;20033;-58
2021/03/24 09:12:28;;;;;;;26.40;17.50;;;282.10;1561.60;;;;;;5037117;28;20029;-59
2021/03/24 09:15:45;;;;;;;23.27;16.05;;;282.50;1510.40;;;;;;5032964;28;20025;-59
2021/03/24 09:18:21;;;;;;;23.88;16.55;;;307.50;1484.80;;;;;;5030577;28;20029;-59
2021/03/24 09:21:05;;;;;;;20.40;13.55;;;307.70;1459.20;;;;;;5033127;28;20104;-60
2021/03/24 09:23:49;;;;;;;21.60;14.73;;;307.50;1459.20;;;;;;5024886;28;20069;-59
2021/03/24 09:26:32;;;;;;;24.13;16.33;;;307.30;1484.80;;;;;;5041325;28;20025;-60
2021/03/24 09:29:17;;;;;;;36.20;21.83;;;307.40;1459.20;;;;;;5041735;28;20057;-59
2021/03/24 09:32:11;;;;;;;34.15;21.13;;;307.40;1459.20;;;;;;5038411;28;20049;-60
2021/03/24 09:34:50;;;;;;;23.48;16.05;;;307.40;1459.20;;;;;;5030449;28;20151;-58
2021/03/24 09:37:20;;;;;;;27.08;18.27;;;307.30;1484.80;;;;;;5030552;28;20049;-57
2021/03/24 09:39:49;;;;;;;26.08;17.13;;;307.40;1459.20;;;;;;5013878;28;20040;-58
2021/03/24 09:42:31;;;;;;;24.10;16.08;;;307.30;1484.80;;;;;;5032403;28;20484;-58
2021/03/24 09:45:08;;;;;;;30.48;20.27;;;282.50;1459.20;;;;;;5038256;28;20025;-58
2021/03/24 09:48:04;;;;;;;23.83;17.10;;;282.40;1484.80;;;;;;5027023;28;20116;-58
2021/03/24 09:50:41;;;;;;;27.13;18.73;;;282.30;1484.80;;;;;;5022368;28;20022;-58
2021/03/24 09:53:28;;;;;;;26.83;18.60;;;282.20;1484.80;;;;;;5010619;28;20515;-59
2021/03/24 09:56:05;;;;;;;24.63;16.75;;;282.00;1510.40;;;;;;5028327;28;20054;-59
2021/03/24 09:59:00;;;;;;;32.47;20.33;;;281.90;1536.00;;;;;;5012897;28;20084;-58
2021/03/24 10:01:45;;;;;;;38.20;24.88;;;281.80;1561.60;;;;;;5028665;28;20060;-58
2021/03/24 10:04:32;;;;;;;34.78;21.77;;;281.60;1561.60;;;;;;5046770;28;20029;-57
2021/03/24 10:07:14;;;;;;;39.53;28.58;;;256.90;1536.00;;;;;;5052179;28;20094;-58
2021/03/24 10:09:51;;;;;;;28.45;18.08;;;256.80;1561.60;;;;;;5052266;28;20028;-58
2021/03/24 10:12:29;;;;;;;29.90;17.80;;;256.80;1536.00;;;;;;5052438;28;20028;-57
2021/03/24 10:15:16;;;;;;;27.38;18.50;;;256.60;1561.60;;;;;;5039962;28;20014;-58
2021/03/24 10:17:51;;;;;;;29.95;19.00;;;256.50;1561.60;;;;;;5052409;28;20032;-59
2021/03/24 10:20:35;;;;;;;30.95;20.02;;;256.60;1587.20;;;;;;5051998;28;20029;-58
2021/03/24 10:23:15;;;;;;;30.42;19.60;;;256.50;1587.20;;;;;;5043029;28;20481;-59
2021/03/24 10:25:44;;;;;;;35.13;22.90;;;256.60;1587.20;;;;;;5045734;28;20078;-59
2021/03/24 10:28:16;;;;;;;42.45;25.55;;;256.60;1587.20;;;;;;5052407;28;20029;-58
2021/03/24 10:30:53;;;;;;;38.95;23.38;;;256.60;1612.80;;;;;;5051762;28;20076;-58
2021/03/24 10:33:48;;;;;;;36.53;22.08;;;256.50;1612.80;;;;;;5052069;28;20025;-58
2021/03/24 10:36:41;;;;;;;36.45;23.58;;;256.50;1612.80;;;;;;5048083;28;20032;-58
2021/03/24 10:39:26;;;;;;;31.70;20.90;;;256.40;1612.80;;;;;;5028312;28;20068;-58
2021/03/24 10:41:52;;;;;;;;;;;256.50;1612.80;;;;;;5031944;28;20034;-58
2021/03/24 10:44:48;;;;;;;28.67;19.80;;;256.50;1612.80;;;;;;5029343;28;19916;-58
2021/03/24 10:47:35;;;;;;;30.80;20.70;;;256.50;1638.40;;;;;;5034715;28;20487;-58
2021/03/24 10:50:10;;;;;;;30.70;21.42;;;256.40;1664.00;;;;;;5019439;28;20045;-59
2021/03/24 10:52:42;;;;;;;28.20;19.48;;;256.40;1664.00;;;;;;5017372;28;20021;-58
2021/03/24 10:55:17;;;;;;;30.75;20.45;;;256.40;1664.00;;;;;;5018845;28;20030;-58
2021/03/24 10:58:21;;;;;;;29.55;20.02;;;256.50;1664.00;;;;;;5014864;28;20030;-59
2021/03/24 11:01:05;;;;;;;27.48;19.20;;;256.40;1715.20;;;;;;5025966;28;20034;-58
2021/03/24 11:03:58;;;;;;;26.60;17.35;;;256.40;1715.20;;;;;;5035661;28;20026;-58
2021/03/24 11:06:30;;;;;;;32.13;20.27;;;256.40;1689.60;;;;;;5012857;28;20558;-59
2021/03/24 11:09:10;;;;;;;27.42;17.83;;;256.40;1715.20;;;;;;5013210;28;20069;-58
2021/03/24 11:11:53;;;;;;;28.27;19.42;;;256.50;1715.20;;;;;;5013296;28;20579;-58
2021/03/24 11:14:20;;;;;;;26.92;19.40;;;256.60;1715.20;;;;;;5013027;28;20034;-59
2021/03/24 11:17:17;;;;;;;27.55;17.88;;;256.50;1715.20;;;;;;5011106;28;20018;-58
2021/03/24 11:19:47;;;;;;;27.73;18.05;;;256.50;1715.20;;;;;;5011448;28;20025;-58
2021/03/24 11:22:28;;;;;;;29.02;19.63;;;256.50;1715.20;;;;;;5012499;28;20037;-58
2021/03/24 11:25:04;;;;;;;36.72;23.02;;;256.70;1689.60;;;;;;5013040;28;20436;-59
2021/03/24 11:27:48;;;;;;;35.05;23.30;;;256.80;1664.00;;;;;;5012620;28;20028;-59
2021/03/24 11:30:26;;;;;;;32.90;21.45;;;281.60;1689.60;;;;;;5012497;28;20037;-59
2021/03/24 11:33:17;;;;;;;36.08;23.30;;;281.70;1664.00;;;;;;5012740;28;20100;-60
2021/03/24 11:36:04;;;;;;;39.67;23.15;;;281.70;1689.60;;;;;;5012374;28;20428;-59
2021/03/24 11:38:47;;;;;;;37.13;22.67;;;281.60;1689.60;;;;;;5012368;28;20030;-60
2021/03/24 11:41:22;;;;;;;35.33;23.08;;;281.80;1638.40;;;;;;4995301;28;20041;-58
2021/03/24 11:43:59;;;;;;;37.65;23.63;;;281.70;1689.60;;;;;;5021425;28;20034;-60
2021/03/24 11:46:25;;;;;;;39.90;25.17;;;281.90;1664.00;;;;;;5024347;28;20033;-59
2021/03/24 11:49:09;;;;;;;32.88;22.17;;;282.10;1638.40;;;;;;5024313;28;20092;-59
2021/03/24 11:52:13;;;;;;;31.83;21.42;;;282.10;1664.00;;;;;;5025294;28;20025;-60
2021/03/24 11:54:56;;;;;;;31.30;20.05;;;282.20;1638.40;;;;;;5024928;28;20117;-60
2021/03/24 11:57:37;;;;;;;38.13;23.90;;;282.30;1612.80;;;;;;5025375;28;20105;-59
2021/03/24 12:00:14;;;;;;;37.75;24.92;;;282.30;1587.20;;;;;;5022823;28;20057;-60
2021/03/24 12:03:02;;;;;;;44.38;30.55;;;282.20;1638.40;;;;;;5026163;28;20120;-60
2021/03/24 12:05:46;;;;;;;32.10;21.42;;;282.10;1638.40;;;;;;5033243;28;20041;-60
2021/03/24 12:08:39;;;;;;;112.50;53.25;;;282.10;1612.80;;;;;;5030660;28;20048;-59
2021/03/24 12:11:26;;;;;;;90.53;47.40;;;282.30;1587.20;;;;;;5033849;28;20028;-59
2021/03/24 12:14:04;;;;;;;39.53;26.15;;;282.30;1638.40;;;;;;5019795;28;20103;-60
2021/03/24 12:16:40;;;;;;;34.38;23.10;;;307.20;1638.40;;;;;;5030352;28;20032;-60
2021/03/24 12:19:24;;;;;;;38.42;22.92;;;307.20;1612.80;;;;;;5024611;28;20282;-59
2021/03/24 12:21:54;;;;;;;37.83;23.73;;;307.30;1561.60;;;;;;5024604;28;20417;-59
2021/03/24 12:24:34;;;;;;;34.60;23.40;;;307.20;1561.60;;;;;;5024058;28;20101;-60
2021/03/24 12:27:32;;;;;;;35.70;23.50;;;307.20;1561.60;;;;;;5021912;28;20109;-60
2021/03/24 12:30:15;;;;;;;36.83;25.17;;;307.20;1587.20;;;;;;5031789;28;20029;-59
2021/03/24 12:32:41;;;;;;;38.03;23.42;;;282.50;1561.60;;;;;;5026678;28;20104;-60
2021/03/24 12:35:17;;;;;;;35.22;23.05;;;307.20;1561.60;;;;;;5022988;28;20095;-60
2021/03/24 12:37:51;;;;;;;37.13;24.60;;;282.50;1536.00;;;;;;5024578;28;20368;-60
2021/03/24 12:40:23;;;;;;;43.40;27.13;;;282.50;1561.60;;;;;;5032740;28;20445;-60
2021/03/24 12:42:50;;;;;;;34.65;22.73;;;282.40;1587.20;;;;;;5025359;28;20376;-60
2021/03/24 12:45:32;;;;;;;32.22;22.58;;;282.50;1561.60;;;;;;5014049;28;20060;-60
2021/03/24 12:48:08;;;;;;;35.72;23.45;;;282.40;1561.60;;;;;;5014072;28;20379;-60
2021/03/24 12:51:18;;;;;;;41.45;26.38;;;282.50;1561.60;;;;;;5012799;28;20021;-60
2021/03/24 12:53:54;;;;;;;38.28;26.23;;;307.30;1561.60;;;;;;5031649;28;20029;-60
2021/03/24 12:56:48;;;;;;;33.45;22.38;;;307.40;1536.00;;;;;;5031322;28;20048;-62